sensor_id;sensor_type;location;lat;lon;timestamp;P1;durP1;ratioP1;P2;durP2;ratioP2
52744;SDS011;38637;49.984;20.426;2023-05-10T00:01:23;5.00;;;3.20;;
52744;SDS011;38637;49.984;20.426;2023-05-10T00:03:49;6.87;;;2.87;;
52744;SDS011;38637;49.984;20.426;2023-05-10T00:06:14;5.07;;;3.33;;
52744;SDS011;38637;49.984;20.426;2023-05-10T00:08:40;6.27;;;2.80;;
52744;SDS011;38637;49.984;20.426;2023-05-10T00:11:05;5.70;;;3.17;;
52744;SDS011;38637;49.984;20.426;2023-05-10T00:13:31;4.47;;;2.73;;
52744;SDS011;38637;49.984;20.426;2023-05-10T00:15:57;3.57;;;2.73;;
52744;SDS011;38637;49.984;20.426;2023-05-10T00:18:22;4.03;;;3.00;;
52744;SDS011;38637;49.984;20.426;2023-05-10T00:20:47;4.40;;;3.50;;
52744;SDS011;38637;49.984;20.426;2023-05-10T00:23:13;4.57;;;3.20;;
52744;SDS011;38637;49.984;20.426;2023-05-10T00:25:39;6.97;;;2.80;;
52744;SDS011;38637;49.984;20.426;2023-05-10T00:28:04;3.17;;;2.60;;
52744;SDS011;38637;49.984;20.426;2023-05-10T00:30:30;3.37;;;2.77;;
52744;SDS011;38637;49.984;20.426;2023-05-10T00:32:55;3.43;;;2.70;;
52744;SDS011;38637;49.984;20.426;2023-05-10T00:35:20;3.23;;;2.93;;
52744;SDS011;38637;49.984;20.426;2023-05-10T00:37:46;5.30;;;3.20;;
52744;SDS011;38637;49.984;20.426;2023-05-10T00:40:12;5.33;;;2.90;;
52744;SDS011;38637;49.984;20.426;2023-05-10T00:42:37;4.37;;;3.00;;
52744;SDS011;38637;49.984;20.426;2023-05-10T00:45:02;3.83;;;2.67;;
52744;SDS011;38637;49.984;20.426;2023-05-10T00:47:28;4.37;;;2.73;;
52744;SDS011;38637;49.984;20.426;2023-05-10T00:49:54;3.47;;;2.77;;
52744;SDS011;38637;49.984;20.426;2023-05-10T00:52:20;5.63;;;3.30;;
52744;SDS011;38637;49.984;20.426;2023-05-10T00:54:48;4.60;;;2.72;;
52744;SDS011;38637;49.984;20.426;2023-05-10T00:57:14;3.65;;;3.25;;
52744;SDS011;38637;49.984;20.426;2023-05-10T00:59:39;5.90;;;2.93;;
52744;SDS011;38637;49.984;20.426;2023-05-10T01:02:05;4.97;;;2.90;;
52744;SDS011;38637;49.984;20.426;2023-05-10T01:04:31;3.33;;;2.80;;
52744;SDS011;38637;49.984;20.426;2023-05-10T01:06:56;6.33;;;3.13;;
52744;SDS011;38637;49.984;20.426;2023-05-10T01:09:22;5.60;;;2.90;;
52744;SDS011;38637;49.984;20.426;2023-05-10T01:11:47;5.07;;;2.93;;
52744;SDS011;38637;49.984;20.426;2023-05-10T01:14:13;4.03;;;2.83;;
52744;SDS011;38637;49.984;20.426;2023-05-10T01:16:42;7.72;;;3.22;;
52744;SDS011;38637;49.984;20.426;2023-05-10T01:19:22;7.50;;;3.70;;
52744;SDS011;38637;49.984;20.426;2023-05-10T01:33:16;7.47;;;3.15;;
52744;SDS011;38637;49.984;20.426;2023-05-10T01:35:47;7.18;;;3.20;;
52744;SDS011;38637;49.984;20.426;2023-05-10T01:38:17;4.70;;;3.08;;
52744;SDS011;38637;49.984;20.426;2023-05-10T01:43:52;4.70;;;3.42;;
52744;SDS011;38637;49.984;20.426;2023-05-10T01:46:30;7.60;;;3.42;;
52744;SDS011;38637;49.984;20.426;2023-05-10T01:49:02;7.57;;;3.42;;
52744;SDS011;38637;49.984;20.426;2023-05-10T01:51:44;3.63;;;3.25;;
52744;SDS011;38637;49.984;20.426;2023-05-10T01:54:12;8.07;;;4.07;;
52744;SDS011;38637;49.984;20.426;2023-05-10T01:56:39;4.82;;;3.83;;
52744;SDS011;38637;49.984;20.426;2023-05-10T01:59:08;4.68;;;2.80;;
52744;SDS011;38637;49.984;20.426;2023-05-10T02:01:38;4.38;;;3.55;;
52744;SDS011;38637;49.984;20.426;2023-05-10T02:04:06;3.50;;;3.20;;
52744;SDS011;38637;49.984;20.426;2023-05-10T02:06:33;8.00;;;3.88;;
52744;SDS011;38637;49.984;20.426;2023-05-10T02:09:00;6.40;;;3.27;;
52744;SDS011;38637;49.984;20.426;2023-05-10T02:13:52;5.05;;;3.33;;
52744;SDS011;38637;49.984;20.426;2023-05-10T02:16:20;5.32;;;4.22;;
52744;SDS011;38637;49.984;20.426;2023-05-10T02:18:51;3.95;;;3.25;;
52744;SDS011;38637;49.984;20.426;2023-05-10T02:21:17;4.75;;;3.17;;
52744;SDS011;38637;49.984;20.426;2023-05-10T02:23:45;8.38;;;3.67;;
52744;SDS011;38637;49.984;20.426;2023-05-10T02:26:12;5.72;;;3.22;;
52744;SDS011;38637;49.984;20.426;2023-05-10T02:28:39;4.05;;;3.58;;
52744;SDS011;38637;49.984;20.426;2023-05-10T02:31:05;4.55;;;3.75;;
52744;SDS011;38637;49.984;20.426;2023-05-10T02:33:32;5.28;;;3.60;;
52744;SDS011;38637;49.984;20.426;2023-05-10T02:35:59;4.43;;;3.22;;
52744;SDS011;38637;49.984;20.426;2023-05-10T02:38:26;4.30;;;3.55;;
52744;SDS011;38637;49.984;20.426;2023-05-10T02:40:52;5.23;;;3.47;;
52744;SDS011;38637;49.984;20.426;2023-05-10T02:43:18;5.53;;;3.67;;
52744;SDS011;38637;49.984;20.426;2023-05-10T02:45:48;6.45;;;3.63;;
52744;SDS011;38637;49.984;20.426;2023-05-10T02:48:13;3.87;;;3.23;;
52744;SDS011;38637;49.984;20.426;2023-05-10T02:50:39;6.07;;;3.27;;
52744;SDS011;38637;49.984;20.426;2023-05-10T02:53:10;5.45;;;3.38;;
52744;SDS011;38637;49.984;20.426;2023-05-10T02:55:40;8.23;;;3.45;;
52744;SDS011;38637;49.984;20.426;2023-05-10T02:58:07;4.75;;;3.05;;
52744;SDS011;38637;49.984;20.426;2023-05-10T03:00:33;4.57;;;3.33;;
52744;SDS011;38637;49.984;20.426;2023-05-10T03:02:58;7.87;;;3.70;;
52744;SDS011;38637;49.984;20.426;2023-05-10T03:05:24;4.53;;;3.43;;
52744;SDS011;38637;49.984;20.426;2023-05-10T03:07:49;8.33;;;3.33;;
52744;SDS011;38637;49.984;20.426;2023-05-10T03:10:16;6.70;;;4.07;;
52744;SDS011;38637;49.984;20.426;2023-05-10T03:18:18;6.43;;;3.67;;
52744;SDS011;38637;49.984;20.426;2023-05-10T03:20:48;6.05;;;3.50;;
52744;SDS011;38637;49.984;20.426;2023-05-10T03:26:00;4.43;;;3.10;;
52744;SDS011;38637;49.984;20.426;2023-05-10T03:28:26;6.53;;;3.67;;
52744;SDS011;38637;49.984;20.426;2023-05-10T03:30:53;6.97;;;3.88;;
52744;SDS011;38637;49.984;20.426;2023-05-10T03:35:45;4.50;;;3.08;;
52744;SDS011;38637;49.984;20.426;2023-05-10T03:38:11;7.83;;;3.43;;
52744;SDS011;38637;49.984;20.426;2023-05-10T03:40:37;5.38;;;3.63;;
52744;SDS011;38637;49.984;20.426;2023-05-10T03:43:02;7.27;;;4.30;;
52744;SDS011;38637;49.984;20.426;2023-05-10T03:45:27;5.33;;;3.77;;
52744;SDS011;38637;49.984;20.426;2023-05-10T03:47:53;6.27;;;4.50;;
52744;SDS011;38637;49.984;20.426;2023-05-10T03:50:19;4.73;;;3.67;;
52744;SDS011;38637;49.984;20.426;2023-05-10T03:52:44;9.23;;;4.30;;
52744;SDS011;38637;49.984;20.426;2023-05-10T03:55:10;4.83;;;3.97;;
52744;SDS011;38637;49.984;20.426;2023-05-10T03:57:35;5.63;;;3.70;;
52744;SDS011;38637;49.984;20.426;2023-05-10T04:00:01;4.33;;;3.60;;
52744;SDS011;38637;49.984;20.426;2023-05-10T04:02:27;5.57;;;4.28;;
52744;SDS011;38637;49.984;20.426;2023-05-10T04:04:52;5.50;;;3.43;;
52744;SDS011;38637;49.984;20.426;2023-05-10T04:07:18;7.97;;;4.10;;
52744;SDS011;38637;49.984;20.426;2023-05-10T04:09:43;6.57;;;4.33;;
52744;SDS011;38637;49.984;20.426;2023-05-10T04:12:08;12.90;;;5.03;;
52744;SDS011;38637;49.984;20.426;2023-05-10T04:14:34;11.10;;;3.93;;
52744;SDS011;38637;49.984;20.426;2023-05-10T04:16:59;8.17;;;3.83;;
52744;SDS011;38637;49.984;20.426;2023-05-10T04:19:28;6.63;;;4.57;;
52744;SDS011;38637;49.984;20.426;2023-05-10T04:21:54;9.18;;;4.07;;
52744;SDS011;38637;49.984;20.426;2023-05-10T04:24:19;6.70;;;3.17;;
52744;SDS011;38637;49.984;20.426;2023-05-10T04:26:44;7.53;;;3.90;;
52744;SDS011;38637;49.984;20.426;2023-05-10T04:29:10;4.53;;;2.93;;
52744;SDS011;38637;49.984;20.426;2023-05-10T04:31:35;4.40;;;2.67;;
52744;SDS011;38637;49.984;20.426;2023-05-10T04:34:01;3.50;;;3.10;;
52744;SDS011;38637;49.984;20.426;2023-05-10T04:36:26;4.63;;;3.73;;
52744;SDS011;38637;49.984;20.426;2023-05-10T04:38:52;3.20;;;2.83;;
52744;SDS011;38637;49.984;20.426;2023-05-10T04:41:18;4.87;;;3.07;;
52744;SDS011;38637;49.984;20.426;2023-05-10T04:43:43;6.20;;;3.30;;
52744;SDS011;38637;49.984;20.426;2023-05-10T04:46:08;4.73;;;3.17;;
52744;SDS011;38637;49.984;20.426;2023-05-10T04:48:34;11.53;;;3.43;;
52744;SDS011;38637;49.984;20.426;2023-05-10T04:50:59;6.77;;;2.90;;
52744;SDS011;38637;49.984;20.426;2023-05-10T04:53:24;6.93;;;3.67;;
52744;SDS011;38637;49.984;20.426;2023-05-10T04:55:50;7.70;;;2.87;;
52744;SDS011;38637;49.984;20.426;2023-05-10T04:58:15;4.57;;;3.23;;
52744;SDS011;38637;49.984;20.426;2023-05-10T05:00:41;9.20;;;3.90;;
52744;SDS011;38637;49.984;20.426;2023-05-10T05:03:06;7.17;;;3.70;;
52744;SDS011;38637;49.984;20.426;2023-05-10T05:05:32;7.93;;;4.07;;
52744;SDS011;38637;49.984;20.426;2023-05-10T05:07:57;8.63;;;4.03;;
52744;SDS011;38637;49.984;20.426;2023-05-10T05:10:22;5.10;;;3.00;;
52744;SDS011;38637;49.984;20.426;2023-05-10T05:12:47;4.63;;;3.43;;
52744;SDS011;38637;49.984;20.426;2023-05-10T05:15:13;4.73;;;3.10;;
52744;SDS011;38637;49.984;20.426;2023-05-10T05:17:40;6.40;;;3.08;;
52744;SDS011;38637;49.984;20.426;2023-05-10T05:20:05;9.10;;;3.57;;
52744;SDS011;38637;49.984;20.426;2023-05-10T05:22:31;4.63;;;3.97;;
52744;SDS011;38637;49.984;20.426;2023-05-10T05:24:57;4.10;;;3.70;;
52744;SDS011;38637;49.984;20.426;2023-05-10T05:27:23;6.20;;;3.40;;
52744;SDS011;38637;49.984;20.426;2023-05-10T05:29:52;7.20;;;3.95;;
52744;SDS011;38637;49.984;20.426;2023-05-10T05:32:18;5.70;;;3.22;;
52744;SDS011;38637;49.984;20.426;2023-05-10T05:34:46;7.53;;;3.33;;
52744;SDS011;38637;49.984;20.426;2023-05-10T05:37:12;4.47;;;3.15;;
52744;SDS011;38637;49.984;20.426;2023-05-10T05:39:39;3.03;;;2.72;;
52744;SDS011;38637;49.984;20.426;2023-05-10T05:42:04;3.77;;;2.80;;
52744;SDS011;38637;49.984;20.426;2023-05-10T05:44:30;4.67;;;2.67;;
52744;SDS011;38637;49.984;20.426;2023-05-10T05:46:55;2.40;;;2.07;;
52744;SDS011;38637;49.984;20.426;2023-05-10T05:49:20;2.57;;;2.20;;
52744;SDS011;38637;49.984;20.426;2023-05-10T05:51:46;3.57;;;2.60;;
52744;SDS011;38637;49.984;20.426;2023-05-10T05:54:12;2.97;;;2.50;;
52744;SDS011;38637;49.984;20.426;2023-05-10T05:56:38;4.60;;;2.60;;
52744;SDS011;38637;49.984;20.426;2023-05-10T05:59:03;5.83;;;3.67;;
52744;SDS011;38637;49.984;20.426;2023-05-10T06:01:28;4.17;;;2.90;;
52744;SDS011;38637;49.984;20.426;2023-05-10T06:03:53;3.23;;;2.73;;
52744;SDS011;38637;49.984;20.426;2023-05-10T06:06:19;3.30;;;2.40;;
52744;SDS011;38637;49.984;20.426;2023-05-10T06:08:44;3.47;;;2.43;;
52744;SDS011;38637;49.984;20.426;2023-05-10T06:11:09;4.50;;;2.60;;
52744;SDS011;38637;49.984;20.426;2023-05-10T06:13:35;3.40;;;2.43;;
52744;SDS011;38637;49.984;20.426;2023-05-10T06:18:27;3.42;;;2.33;;
52744;SDS011;38637;49.984;20.426;2023-05-10T06:20:52;4.07;;;2.53;;
52744;SDS011;38637;49.984;20.426;2023-05-10T06:23:18;4.53;;;2.80;;
52744;SDS011;38637;49.984;20.426;2023-05-10T06:25:43;5.03;;;2.60;;
52744;SDS011;38637;49.984;20.426;2023-05-10T06:28:08;6.93;;;2.60;;
52744;SDS011;38637;49.984;20.426;2023-05-10T06:30:35;3.53;;;2.13;;
52744;SDS011;38637;49.984;20.426;2023-05-10T06:33:01;3.65;;;2.58;;
52744;SDS011;38637;49.984;20.426;2023-05-10T06:35:26;3.27;;;2.73;;
52744;SDS011;38637;49.984;20.426;2023-05-10T06:37:53;11.65;;;2.88;;
52744;SDS011;38637;49.984;20.426;2023-05-10T06:40:18;13.23;;;3.53;;
52744;SDS011;38637;49.984;20.426;2023-05-10T06:42:44;28.67;;;3.33;;
52744;SDS011;38637;49.984;20.426;2023-05-10T06:45:10;2.57;;;2.13;;
52744;SDS011;38637;49.984;20.426;2023-05-10T06:47:36;4.03;;;2.45;;
52744;SDS011;38637;49.984;20.426;2023-05-10T06:50:01;6.50;;;4.73;;
52744;SDS011;38637;49.984;20.426;2023-05-10T06:52:26;2.83;;;2.43;;
52744;SDS011;38637;49.984;20.426;2023-05-10T06:54:52;3.43;;;2.77;;
52744;SDS011;38637;49.984;20.426;2023-05-10T06:57:17;4.50;;;2.50;;
52744;SDS011;38637;49.984;20.426;2023-05-10T06:59:43;2.40;;;2.20;;
52744;SDS011;38637;49.984;20.426;2023-05-10T07:02:09;3.10;;;2.30;;
52744;SDS011;38637;49.984;20.426;2023-05-10T07:04:34;6.90;;;2.17;;
52744;SDS011;38637;49.984;20.426;2023-05-10T07:06:59;4.67;;;2.33;;
52744;SDS011;38637;49.984;20.426;2023-05-10T07:09:25;3.00;;;2.17;;
52744;SDS011;38637;49.984;20.426;2023-05-10T07:11:50;4.30;;;2.20;;
52744;SDS011;38637;49.984;20.426;2023-05-10T07:14:15;4.07;;;1.93;;
52744;SDS011;38637;49.984;20.426;2023-05-10T07:16:40;5.10;;;2.40;;
52744;SDS011;38637;49.984;20.426;2023-05-10T07:19:06;4.53;;;1.70;;
52744;SDS011;38637;49.984;20.426;2023-05-10T07:21:32;3.67;;;1.47;;
52744;SDS011;38637;49.984;20.426;2023-05-10T07:23:57;2.73;;;1.87;;
52744;SDS011;38637;49.984;20.426;2023-05-10T07:26:22;3.40;;;1.70;;
52744;SDS011;38637;49.984;20.426;2023-05-10T07:28:48;3.58;;;1.77;;
52744;SDS011;38637;49.984;20.426;2023-05-10T07:31:14;10.00;;;3.70;;
52744;SDS011;38637;49.984;20.426;2023-05-10T07:33:39;4.60;;;2.87;;
52744;SDS011;38637;49.984;20.426;2023-05-10T07:36:05;4.97;;;2.47;;
52744;SDS011;38637;49.984;20.426;2023-05-10T07:38:30;2.33;;;1.93;;
52744;SDS011;38637;49.984;20.426;2023-05-10T07:40:55;4.10;;;2.30;;
52744;SDS011;38637;49.984;20.426;2023-05-10T07:43:21;2.80;;;1.53;;
52744;SDS011;38637;49.984;20.426;2023-05-10T07:45:46;2.30;;;1.80;;
52744;SDS011;38637;49.984;20.426;2023-05-10T07:48:11;2.03;;;1.60;;
52744;SDS011;38637;49.984;20.426;2023-05-10T07:50:37;4.53;;;2.53;;
52744;SDS011;38637;49.984;20.426;2023-05-10T07:53:02;1.63;;;1.33;;
52744;SDS011;38637;49.984;20.426;2023-05-10T07:55:27;4.60;;;1.60;;
52744;SDS011;38637;49.984;20.426;2023-05-10T07:57:53;2.73;;;1.70;;
52744;SDS011;38637;49.984;20.426;2023-05-10T08:00:18;5.37;;;3.37;;
52744;SDS011;38637;49.984;20.426;2023-05-10T08:05:10;5.53;;;2.45;;
52744;SDS011;38637;49.984;20.426;2023-05-10T08:07:36;2.90;;;1.50;;
52744;SDS011;38637;49.984;20.426;2023-05-10T08:10:02;1.60;;;1.50;;
52744;SDS011;38637;49.984;20.426;2023-05-10T08:12:28;4.70;;;1.90;;
52744;SDS011;38637;49.984;20.426;2023-05-10T08:14:53;4.50;;;1.97;;
52744;SDS011;38637;49.984;20.426;2023-05-10T08:17:18;3.70;;;2.10;;
52744;SDS011;38637;49.984;20.426;2023-05-10T08:19:43;2.90;;;1.60;;
52744;SDS011;38637;49.984;20.426;2023-05-10T08:22:09;2.93;;;2.37;;
52744;SDS011;38637;49.984;20.426;2023-05-10T08:24:35;2.40;;;1.77;;
52744;SDS011;38637;49.984;20.426;2023-05-10T08:27:03;2.17;;;1.80;;
52744;SDS011;38637;49.984;20.426;2023-05-10T08:29:29;2.13;;;1.52;;
52744;SDS011;38637;49.984;20.426;2023-05-10T08:31:55;1.67;;;1.57;;
52744;SDS011;38637;49.984;20.426;2023-05-10T08:34:20;1.60;;;1.50;;
52744;SDS011;38637;49.984;20.426;2023-05-10T08:36:45;4.23;;;1.60;;
52744;SDS011;38637;49.984;20.426;2023-05-10T08:39:10;2.13;;;1.60;;
52744;SDS011;38637;49.984;20.426;2023-05-10T08:41:36;6.67;;;1.40;;
52744;SDS011;38637;49.984;20.426;2023-05-10T08:44:04;6.38;;;1.45;;
52744;SDS011;38637;49.984;20.426;2023-05-10T08:46:30;1.48;;;1.33;;
52744;SDS011;38637;49.984;20.426;2023-05-10T08:48:58;3.75;;;1.63;;
52744;SDS011;38637;49.984;20.426;2023-05-10T08:51:29;2.05;;;1.50;;
52744;SDS011;38637;49.984;20.426;2023-05-10T08:53:59;3.72;;;1.83;;
52744;SDS011;38637;49.984;20.426;2023-05-10T08:56:25;2.13;;;1.40;;
52744;SDS011;38637;49.984;20.426;2023-05-10T08:58:51;1.60;;;1.50;;
52744;SDS011;38637;49.984;20.426;2023-05-10T09:01:16;2.07;;;1.43;;
52744;SDS011;38637;49.984;20.426;2023-05-10T09:03:45;4.07;;;1.27;;
52744;SDS011;38637;49.984;20.426;2023-05-10T09:06:11;2.28;;;1.25;;
52744;SDS011;38637;49.984;20.426;2023-05-10T09:08:38;2.03;;;1.50;;
52744;SDS011;38637;49.984;20.426;2023-05-10T09:11:04;4.00;;;1.20;;
52744;SDS011;38637;49.984;20.426;2023-05-10T09:13:30;1.70;;;1.27;;
52744;SDS011;38637;49.984;20.426;2023-05-10T09:15:56;1.77;;;1.23;;
52744;SDS011;38637;49.984;20.426;2023-05-10T09:18:22;1.55;;;1.35;;
52744;SDS011;38637;49.984;20.426;2023-05-10T09:20:48;6.33;;;1.60;;
52744;SDS011;38637;49.984;20.426;2023-05-10T09:23:14;3.47;;;1.25;;
52744;SDS011;38637;49.984;20.426;2023-05-10T09:25:40;6.33;;;1.13;;
52744;SDS011;38637;49.984;20.426;2023-05-10T09:28:07;2.38;;;1.30;;
52744;SDS011;38637;49.984;20.426;2023-05-10T09:30:34;1.50;;;1.40;;
52744;SDS011;38637;49.984;20.426;2023-05-10T09:33:00;8.73;;;1.30;;
52744;SDS011;38637;49.984;20.426;2023-05-10T09:35:26;3.97;;;1.50;;
52744;SDS011;38637;49.984;20.426;2023-05-10T09:37:56;2.13;;;1.20;;
52744;SDS011;38637;49.984;20.426;2023-05-10T09:40:23;5.57;;;1.23;;
52744;SDS011;38637;49.984;20.426;2023-05-10T09:45:26;2.15;;;1.40;;
52744;SDS011;38637;49.984;20.426;2023-05-10T09:47:53;3.15;;;1.30;;
52744;SDS011;38637;49.984;20.426;2023-05-10T09:50:19;2.60;;;1.35;;
52744;SDS011;38637;49.984;20.426;2023-05-10T09:55:12;1.85;;;1.10;;
52744;SDS011;38637;49.984;20.426;2023-05-10T09:57:38;1.57;;;1.20;;
52744;SDS011;38637;49.984;20.426;2023-05-10T10:00:04;1.20;;;1.10;;
52744;SDS011;38637;49.984;20.426;2023-05-10T10:04:56;3.15;;;1.40;;
52744;SDS011;38637;49.984;20.426;2023-05-10T10:07:22;1.20;;;1.10;;
52744;SDS011;38637;49.984;20.426;2023-05-10T10:09:49;4.05;;;1.40;;
52744;SDS011;38637;49.984;20.426;2023-05-10T10:12:15;3.17;;;1.03;;
52744;SDS011;38637;49.984;20.426;2023-05-10T10:14:40;2.13;;;1.27;;
52744;SDS011;38637;49.984;20.426;2023-05-10T10:17:06;1.30;;;1.15;;
52744;SDS011;38637;49.984;20.426;2023-05-10T10:21:59;1.38;;;1.27;;
52744;SDS011;38637;49.984;20.426;2023-05-10T10:24:25;2.70;;;1.00;;
52744;SDS011;38637;49.984;20.426;2023-05-10T10:26:50;2.87;;;1.03;;
52744;SDS011;38637;49.984;20.426;2023-05-10T10:29:26;1.30;;;1.20;;
52744;SDS011;38637;49.984;20.426;2023-05-10T10:32:30;5.10;;;1.30;;
52744;SDS011;38637;49.984;20.426;2023-05-10T10:35:03;1.60;;;1.15;;
52744;SDS011;38637;49.984;20.426;2023-05-10T10:37:46;4.78;;;1.40;;
52744;SDS011;38637;49.984;20.426;2023-05-10T10:40:25;3.50;;;1.10;;
52744;SDS011;38637;49.984;20.426;2023-05-10T10:42:55;2.72;;;1.23;;
52744;SDS011;38637;49.984;20.426;2023-05-10T10:45:22;1.40;;;1.30;;
52744;SDS011;38637;49.984;20.426;2023-05-10T10:47:48;3.95;;;1.23;;
52744;SDS011;38637;49.984;20.426;2023-05-10T10:50:14;3.65;;;1.25;;
52744;SDS011;38637;49.984;20.426;2023-05-10T10:52:43;2.83;;;1.00;;
52744;SDS011;38637;49.984;20.426;2023-05-10T10:55:10;9.43;;;1.65;;
52744;SDS011;38637;49.984;20.426;2023-05-10T11:02:54;2.20;;;1.10;;
52744;SDS011;38637;49.984;20.426;2023-05-10T11:07:51;1.95;;;0.82;;
52744;SDS011;38637;49.984;20.426;2023-05-10T11:10:20;3.13;;;1.20;;
52744;SDS011;38637;49.984;20.426;2023-05-10T11:13:03;2.08;;;1.20;;
52744;SDS011;38637;49.984;20.426;2023-05-10T11:15:37;4.18;;;1.00;;
52744;SDS011;38637;49.984;20.426;2023-05-10T11:18:24;1.27;;;1.00;;
52744;SDS011;38637;49.984;20.426;2023-05-10T11:21:00;1.73;;;1.20;;
52744;SDS011;38637;49.984;20.426;2023-05-10T11:23:32;2.17;;;1.02;;
52744;SDS011;38637;49.984;20.426;2023-05-10T11:26:06;3.47;;;1.10;;
52744;SDS011;38637;49.984;20.426;2023-05-10T11:28:34;1.65;;;0.90;;
52744;SDS011;38637;49.984;20.426;2023-05-10T11:31:00;3.40;;;0.90;;
52744;SDS011;38637;49.984;20.426;2023-05-10T11:33:25;3.93;;;1.33;;
52744;SDS011;38637;49.984;20.426;2023-05-10T11:35:50;3.53;;;1.40;;
52744;SDS011;38637;49.984;20.426;2023-05-10T11:38:15;3.17;;;0.90;;
52744;SDS011;38637;49.984;20.426;2023-05-10T11:40:41;2.67;;;0.83;;
52744;SDS011;38637;49.984;20.426;2023-05-10T11:43:08;2.23;;;1.00;;
52744;SDS011;38637;49.984;20.426;2023-05-10T11:45:34;2.35;;;1.00;;
52744;SDS011;38637;49.984;20.426;2023-05-10T11:48:00;2.40;;;1.07;;
52744;SDS011;38637;49.984;20.426;2023-05-10T11:50:26;0.70;;;0.70;;
52744;SDS011;38637;49.984;20.426;2023-05-10T11:52:52;4.03;;;1.05;;
52744;SDS011;38637;49.984;20.426;2023-05-10T11:55:18;2.42;;;0.90;;
52744;SDS011;38637;49.984;20.426;2023-05-10T11:57:44;5.10;;;0.98;;
52744;SDS011;38637;49.984;20.426;2023-05-10T12:00:11;2.17;;;1.10;;
52744;SDS011;38637;49.984;20.426;2023-05-10T12:02:37;3.00;;;0.98;;
52744;SDS011;38637;49.984;20.426;2023-05-10T12:05:02;0.80;;;0.80;;
52744;SDS011;38637;49.984;20.426;2023-05-10T12:07:30;2.35;;;1.00;;
52744;SDS011;38637;49.984;20.426;2023-05-10T12:10:13;1.40;;;1.13;;
52744;SDS011;38637;49.984;20.426;2023-05-10T12:12:45;1.90;;;0.90;;
52744;SDS011;38637;49.984;20.426;2023-05-10T12:15:21;2.55;;;1.20;;
52744;SDS011;38637;49.984;20.426;2023-05-10T12:17:48;2.10;;;1.02;;
52744;SDS011;38637;49.984;20.426;2023-05-10T12:20:21;1.25;;;0.90;;
52744;SDS011;38637;49.984;20.426;2023-05-10T12:22:51;2.10;;;1.10;;
52744;SDS011;38637;49.984;20.426;2023-05-10T12:25:17;2.25;;;1.10;;
52744;SDS011;38637;49.984;20.426;2023-05-10T12:27:54;1.13;;;1.02;;
52744;SDS011;38637;49.984;20.426;2023-05-10T12:30:24;3.80;;;1.13;;
52744;SDS011;38637;49.984;20.426;2023-05-10T12:32:51;2.20;;;1.10;;
52744;SDS011;38637;49.984;20.426;2023-05-10T12:35:18;1.10;;;1.00;;
52744;SDS011;38637;49.984;20.426;2023-05-10T12:37:49;4.07;;;1.30;;
52744;SDS011;38637;49.984;20.426;2023-05-10T12:42:40;2.72;;;1.10;;
52744;SDS011;38637;49.984;20.426;2023-05-10T12:45:07;3.97;;;3.20;;
52744;SDS011;38637;49.984;20.426;2023-05-10T12:47:33;3.13;;;1.20;;
52744;SDS011;38637;49.984;20.426;2023-05-10T12:49:59;5.53;;;3.65;;
52744;SDS011;38637;49.984;20.426;2023-05-10T12:54:52;1.20;;;1.10;;
52744;SDS011;38637;49.984;20.426;2023-05-10T12:57:18;1.17;;;1.08;;
52744;SDS011;38637;49.984;20.426;2023-05-10T12:59:44;4.13;;;1.42;;
52744;SDS011;38637;49.984;20.426;2023-05-10T13:02:09;2.33;;;1.13;;
52744;SDS011;38637;49.984;20.426;2023-05-10T13:04:35;1.10;;;1.00;;
52744;SDS011;38637;49.984;20.426;2023-05-10T13:07:04;1.55;;;1.20;;
52744;SDS011;38637;49.984;20.426;2023-05-10T13:09:29;2.37;;;1.60;;
52744;SDS011;38637;49.984;20.426;2023-05-10T13:11:55;1.60;;;1.10;;
52744;SDS011;38637;49.984;20.426;2023-05-10T13:14:20;1.83;;;1.30;;
52744;SDS011;38637;49.984;20.426;2023-05-10T13:16:46;1.40;;;1.20;;
52744;SDS011;38637;49.984;20.426;2023-05-10T13:19:12;3.22;;;1.00;;
52744;SDS011;38637;49.984;20.426;2023-05-10T13:21:38;2.25;;;0.68;;
52744;SDS011;38637;49.984;20.426;2023-05-10T13:24:03;4.73;;;1.07;;
52744;SDS011;38637;49.984;20.426;2023-05-10T13:26:29;3.13;;;0.90;;
52744;SDS011;38637;49.984;20.426;2023-05-10T13:28:54;2.13;;;1.20;;
52744;SDS011;38637;49.984;20.426;2023-05-10T13:31:20;1.00;;;0.90;;
52744;SDS011;38637;49.984;20.426;2023-05-10T13:33:46;1.20;;;1.10;;
52744;SDS011;38637;49.984;20.426;2023-05-10T13:36:11;7.73;;;1.10;;
52744;SDS011;38637;49.984;20.426;2023-05-10T13:38:37;2.77;;;1.20;;
52744;SDS011;38637;49.984;20.426;2023-05-10T13:41:02;6.93;;;1.87;;
52744;SDS011;38637;49.984;20.426;2023-05-10T13:43:28;3.83;;;1.00;;
52744;SDS011;38637;49.984;20.426;2023-05-10T13:45:54;3.85;;;1.48;;
52744;SDS011;38637;49.984;20.426;2023-05-10T13:48:20;3.83;;;1.27;;
52744;SDS011;38637;49.984;20.426;2023-05-10T13:50:46;2.80;;;1.10;;
52744;SDS011;38637;49.984;20.426;2023-05-10T13:53:11;2.57;;;1.27;;
52744;SDS011;38637;49.984;20.426;2023-05-10T13:58:58;1.40;;;0.95;;
52744;SDS011;38637;49.984;20.426;2023-05-10T14:01:24;1.13;;;0.82;;
52744;SDS011;38637;49.984;20.426;2023-05-10T14:03:49;3.57;;;1.50;;
52744;SDS011;38637;49.984;20.426;2023-05-10T14:06:15;1.73;;;1.13;;
52744;SDS011;38637;49.984;20.426;2023-05-10T14:08:41;1.63;;;1.30;;
52744;SDS011;38637;49.984;20.426;2023-05-10T14:11:07;5.03;;;1.00;;
52744;SDS011;38637;49.984;20.426;2023-05-10T14:13:32;1.90;;;1.13;;
52744;SDS011;38637;49.984;20.426;2023-05-10T14:15:58;3.00;;;1.10;;
52744;SDS011;38637;49.984;20.426;2023-05-10T14:18:25;1.10;;;1.00;;
52744;SDS011;38637;49.984;20.426;2023-05-10T14:20:51;1.10;;;1.00;;
52744;SDS011;38637;49.984;20.426;2023-05-10T14:23:16;5.93;;;1.00;;
52744;SDS011;38637;49.984;20.426;2023-05-10T14:25:42;1.57;;;1.10;;
52744;SDS011;38637;49.984;20.426;2023-05-10T14:28:08;4.30;;;1.67;;
52744;SDS011;38637;49.984;20.426;2023-05-10T14:30:34;2.67;;;1.15;;
52744;SDS011;38637;49.984;20.426;2023-05-10T14:33:00;1.57;;;1.20;;
52744;SDS011;38637;49.984;20.426;2023-05-10T14:35:27;3.92;;;1.50;;
52744;SDS011;38637;49.984;20.426;2023-05-10T14:37:53;4.93;;;1.30;;
52744;SDS011;38637;49.984;20.426;2023-05-10T14:40:19;1.20;;;1.10;;
52744;SDS011;38637;49.984;20.426;2023-05-10T14:45:11;5.57;;;1.50;;
52744;SDS011;38637;49.984;20.426;2023-05-10T14:47:37;1.45;;;1.23;;
52744;SDS011;38637;49.984;20.426;2023-05-10T14:50:03;3.60;;;2.03;;
52744;SDS011;38637;49.984;20.426;2023-05-10T14:55:50;4.05;;;1.40;;
52744;SDS011;38637;49.984;20.426;2023-05-10T14:58:16;5.57;;;1.17;;
52744;SDS011;38637;49.984;20.426;2023-05-10T15:00:41;4.17;;;1.00;;
52744;SDS011;38637;49.984;20.426;2023-05-10T15:03:07;8.23;;;1.10;;
52744;SDS011;38637;49.984;20.426;2023-05-10T15:05:32;2.00;;;0.97;;
52744;SDS011;38637;49.984;20.426;2023-05-10T15:07:58;2.33;;;1.20;;
52744;SDS011;38637;49.984;20.426;2023-05-10T15:10:23;3.63;;;1.20;;
52744;SDS011;38637;49.984;20.426;2023-05-10T15:12:49;2.10;;;1.17;;
52744;SDS011;38637;49.984;20.426;2023-05-10T15:15:15;1.33;;;1.23;;
52744;SDS011;38637;49.984;20.426;2023-05-10T15:17:40;2.60;;;1.57;;
52744;SDS011;38637;49.984;20.426;2023-05-10T15:20:06;1.50;;;1.30;;
52744;SDS011;38637;49.984;20.426;2023-05-10T15:22:32;2.05;;;0.95;;
52744;SDS011;38637;49.984;20.426;2023-05-10T15:25:00;3.23;;;1.20;;
52744;SDS011;38637;49.984;20.426;2023-05-10T15:27:26;3.78;;;1.60;;
52744;SDS011;38637;49.984;20.426;2023-05-10T15:29:52;1.60;;;1.30;;
52744;SDS011;38637;49.984;20.426;2023-05-10T15:32:18;4.25;;;1.00;;
52744;SDS011;38637;49.984;20.426;2023-05-10T15:34:43;2.20;;;1.30;;